Messwerte Pangai/Lifuka Island

Temperatur

Temperatur
°C
1624251600 18.00 18.00 25
1624255200 19.00 19.00 22
1624258800 20.00 20.00
1624262400 21.00 21.00
1624266000 22.00 22.00
1624269600 23.00 23.00
1624273200 0.00 0.00
1624276800 1.00 1.00 20
1624280400 2.00 2.00
1624284000 3.00 3.00
1624287600 4.00 4.00
1624291200 5.00 5.00
1624294800 6.00 6.00 20
1624298400 7.00 7.00 19
1624302000 8.00 8.00 19
1624305600 9.00 9.00 23
1624309200 10.00 10.00 24
1624312800 11.00 11.00 26
1624316400 12.00 12.00 26
1624320000 13.00 13.00 27
1624323600 14.00 14.00 26
1624327200 15.00 15.00 27
1624330800 16.00 16.00 27
1624334400 17.00 17.00 26

Aktuellste Messwerte

Wettercharakter
Wetter: recht sonnig
Temperatur
26 °C
Feuchtigkeit
70 %
Wind
5 km/h, -
Luftdruck
1015 hPa
Messzeit: 22. Juni 2021, 17.00Datenquelle: METAR

Weitere Messstationen in der Nähe

Messstation Temperatur Entfernung
Lupepau'u/Vava'u 26 °C 139 km
Nuku'alofa Fua'amotu 26 °C 182 km
Alofi / Niue 26 °C 470 km

Wind

Windrichtung Böen Mittelwind
° km/h km/h
1624251600 18.00 17.00 - 18.00 0
1624255200 19.00 18.00 - 19.00 0
1624258800 20.00 19.00 - 20.00
1624262400 21.00 20.00 - 21.00
1624266000 22.00 21.00 - 22.00
1624269600 23.00 22.00 - 23.00
1624273200 0.00 23.00 - 0.00
1624276800 1.00 0.00 - 1.00 0
1624280400 2.00 1.00 - 2.00
1624284000 3.00 2.00 - 3.00
1624287600 4.00 3.00 - 4.00
1624291200 5.00 4.00 - 5.00
1624294800 6.00 5.00 - 6.00 0
1624298400 7.00 6.00 - 7.00 0
1624302000 8.00 7.00 - 8.00 0
1624305600 9.00 8.00 - 9.00 0
1624309200 10.00 9.00 - 10.00 0
1624312800 11.00 10.00 - 11.00 0
1624316400 12.00 11.00 - 12.00 5
1624320000 13.00 12.00 - 13.00 5
1624323600 14.00 13.00 - 14.00 5
1624327200 15.00 14.00 - 15.00 5
1624330800 16.00 15.00 - 16.00 5
1624334400 17.00 16.00 - 17.00 5

Ihre Wetterstation

Fehlt Ihre Wetterstation auf unserem Portal?

Schreiben Sie an network@meteonews.ch

Klima

Wann ist es am wärmsten? Wann regnet es am wenigsten? Unsere Klimadaten geben Auskunft.